Time;durP1;ratioP1;P1;durP2;ratioP2;P2;SDS_P1;SDS_P2;PMS_P1;PMS_P2;Temp;Humidity;BMP_temperature;BMP_pressure;BME280_temperature;BME280_humidity;BME280_pressure;Samples;Min_cycle;Max_cycle;Signal;HPM_P1;HPM_P2
2022/01/04 00:00:26;;;;;;;11.73;10.68;;;8.70;99.90;;;;;;4163608;28;20056;-55
2022/01/04 00:02:46;;;;;;;9.32;8.52;;;8.70;99.90;;;;;;4167247;28;20099;-54
2022/01/04 00:05:08;;;;;;;13.05;9.70;;;8.70;99.90;;;;;;4163638;28;20459;-56
2022/01/04 00:07:29;;;;;;;10.73;9.38;;;8.80;99.90;;;;;;4166144;28;20421;-55
2022/01/04 00:09:52;;;;;;;10.60;9.65;;;8.70;99.90;;;;;;4169773;28;20052;-56
2022/01/04 00:14:52;;;;;;;11.05;10.02;;;8.70;99.90;;;;;;4166170;28;20092;-54
2022/01/04 00:17:14;;;;;;;11.60;10.68;;;8.70;99.90;;;;;;4165103;28;20060;-55
2022/01/04 00:19:34;;;;;;;11.48;10.52;;;8.60;99.90;;;;;;4165356;28;20080;-56
2022/01/04 00:21:57;;;;;;;17.48;10.98;;;8.50;99.90;;;;;;4164865;28;20086;-56
2022/01/04 00:24:18;;;;;;;10.43;9.57;;;8.50;99.90;;;;;;4164900;28;20047;-56
2022/01/04 00:26:38;;;;;;;13.88;10.30;;;8.60;99.90;;;;;;4166158;28;20153;-56
2022/01/04 00:28:59;;;;;;;12.95;10.15;;;8.50;99.90;;;;;;4165076;28;20056;-56
2022/01/04 00:31:20;;;;;;;10.43;8.48;;;8.50;99.90;;;;;;4166629;28;20406;-55
2022/01/04 00:33:40;;;;;;;11.23;10.05;;;8.50;99.90;;;;;;4165183;28;20096;-55
2022/01/04 00:36:01;;;;;;;10.05;9.23;;;8.50;99.90;;;;;;4163871;28;20071;-56
2022/01/04 00:38:22;;;;;;;12.20;7.97;;;8.50;99.90;;;;;;4165885;28;20135;-55
2022/01/04 00:40:43;;;;;;;9.07;8.23;;;8.70;99.90;;;;;;4161499;28;20052;-56
2022/01/04 00:43:04;;;;;;;8.88;8.15;;;8.70;99.90;;;;;;4164017;28;20060;-55
2022/01/04 00:45:32;;;;;;;10.18;9.23;;;8.70;99.90;;;;;;4163986;28;20065;-55
2022/01/04 00:50:14;;;;;;;7.70;7.07;;;8.80;99.90;;;;;;4158579;28;20056;-55
2022/01/04 00:52:35;;;;;;;11.40;8.80;;;8.80;99.90;;;;;;4160931;28;20043;-55
2022/01/04 00:54:55;;;;;;;10.35;8.95;;;8.80;99.90;;;;;;4161594;28;20068;-54
2022/01/04 00:57:16;;;;;;;16.67;9.80;;;8.80;99.90;;;;;;4161986;28;20107;-55
2022/01/04 00:59:36;;;;;;;12.65;10.38;;;8.80;99.90;;;;;;4147999;28;20406;-55
2022/01/04 01:01:57;;;;;;;11.38;10.50;;;8.80;99.90;;;;;;4161739;28;20056;-55
2022/01/04 01:04:19;;;;;;;13.10;9.23;;;8.80;99.90;;;;;;4162205;28;20099;-55
2022/01/04 01:06:40;;;;;;;10.88;9.07;;;8.80;99.90;;;;;;4163807;28;20134;-55
2022/01/04 01:09:01;;;;;;;13.00;10.18;;;8.80;99.90;;;;;;4155530;28;20050;-54
2022/01/04 01:11:21;;;;;;;10.88;9.68;;;8.90;99.90;;;;;;4162909;28;20063;-55
2022/01/04 01:13:42;;;;;;;15.85;9.32;;;8.80;99.90;;;;;;4160883;28;20096;-56
2022/01/04 01:16:03;;;;;;;8.50;8.00;;;8.90;99.90;;;;;;4149928;28;20044;-55
2022/01/04 01:18:24;;;;;;;9.23;7.63;;;8.90;99.90;;;;;;4157432;28;20076;-56
2022/01/04 01:20:49;;;;;;;10.18;8.90;;;8.90;99.90;;;;;;4162050;28;20145;-56
2022/01/04 01:23:10;;;;;;;9.68;8.60;;;8.90;99.90;;;;;;4161305;28;20551;-55
2022/01/04 01:25:32;;;;;;;15.13;9.50;;;8.90;99.90;;;;;;4160778;28;20414;-55
2022/01/04 01:27:52;;;;;;;12.20;7.93;;;8.90;99.90;;;;;;4159303;28;20060;-55
2022/01/04 01:30:14;;;;;;;8.65;7.30;;;9.00;99.90;;;;;;4162077;28;20393;-55
2022/01/04 01:32:34;;;;;;;8.77;8.02;;;8.90;99.90;;;;;;4160022;28;20049;-55
2022/01/04 01:34:55;;;;;;;7.63;7.05;;;9.00;99.90;;;;;;4162248;28;20149;-56
2022/01/04 01:37:15;;;;;;;10.23;8.35;;;9.00;99.90;;;;;;4161775;28;20583;-56
2022/01/04 01:39:36;;;;;;;9.27;8.05;;;9.00;99.90;;;;;;4162784;28;20572;-55
2022/01/04 01:41:57;;;;;;;7.93;6.95;;;9.00;99.90;;;;;;4160045;28;20104;-54
2022/01/04 01:44:19;;;;;;;7.78;7.05;;;9.00;99.90;;;;;;4147943;28;20100;-55
2022/01/04 01:46:39;;;;;;;8.32;7.80;;;9.00;99.90;;;;;;4163481;28;20091;-55
2022/01/04 01:49:00;;;;;;;7.57;6.32;;;9.00;99.90;;;;;;4160382;28;20141;-55
2022/01/04 01:51:23;;;;;;;9.55;6.72;;;9.00;99.90;;;;;;4162223;28;20044;-54
2022/01/04 01:53:45;;;;;;;14.18;7.72;;;9.00;99.90;;;;;;4160013;28;20064;-55
2022/01/04 01:56:05;;;;;;;10.45;6.95;;;9.00;99.90;;;;;;4161984;28;20052;-56
2022/01/04 01:58:26;;;;;;;6.88;6.38;;;9.00;99.90;;;;;;4157963;28;20057;-54
2022/01/04 02:00:47;;;;;;;6.63;6.03;;;9.10;99.90;;;;;;4157627;28;20521;-54
2022/01/04 02:03:07;;;;;;;13.75;6.93;;;9.10;99.90;;;;;;4163179;28;20076;-54
2022/01/04 02:05:29;;;;;;;10.35;7.40;;;9.20;99.90;;;;;;4158542;28;20111;-54
2022/01/04 02:07:49;;;;;;;8.40;7.57;;;9.10;99.90;;;;;;4160042;28;20528;-55
2022/01/04 02:10:11;;;;;;;10.43;6.75;;;9.10;99.90;;;;;;4158844;28;20051;-55
2022/01/04 02:12:39;;;;;;;9.13;7.00;;;9.10;99.90;;;;;;4170190;28;20103;-54
2022/01/04 02:15:01;;;;;;;8.30;6.40;;;9.10;99.90;;;;;;4161604;28;20115;-54
2022/01/04 02:17:21;;;;;;;7.25;6.18;;;9.10;99.90;;;;;;4159991;28;20115;-54
2022/01/04 02:19:42;;;;;;;10.25;6.97;;;9.10;99.90;;;;;;4162298;28;20088;-54
2022/01/04 02:22:03;;;;;;;11.63;6.45;;;9.00;99.90;;;;;;4159247;28;20087;-54
2022/01/04 02:24:23;;;;;;;7.47;6.78;;;9.00;99.90;;;;;;4160697;28;20047;-55
2022/01/04 02:26:44;;;;;;;9.57;6.80;;;9.00;99.90;;;;;;4160968;28;20053;-55
2022/01/04 02:29:07;;;;;;;11.02;6.90;;;8.90;99.90;;;;;;4159796;28;20052;-55
2022/01/04 02:31:27;;;;;;;7.45;7.05;;;8.80;99.90;;;;;;4161980;28;20052;-54
2022/01/04 02:33:48;;;;;;;9.45;7.22;;;8.80;99.90;;;;;;4161125;28;20088;-55
2022/01/04 02:36:09;;;;;;;11.52;7.05;;;8.80;99.90;;;;;;4162113;28;20516;-55
2022/01/04 02:38:29;;;;;;;7.07;6.43;;;8.80;99.90;;;;;;4160051;28;20057;-55
2022/01/04 02:40:50;;;;;;;6.90;5.95;;;8.80;99.90;;;;;;4156562;28;20190;-54
2022/01/04 02:43:10;;;;;;;9.10;6.28;;;8.80;99.90;;;;;;4156182;28;20057;-55
2022/01/04 02:45:31;;;;;;;9.07;6.38;;;8.70;99.90;;;;;;4152543;28;20064;-54
2022/01/04 02:47:52;;;;;;;7.00;6.35;;;8.70;99.90;;;;;;4162054;28;20056;-54
2022/01/04 02:50:13;;;;;;;6.03;5.57;;;8.70;99.90;;;;;;4156654;28;20397;-55
2022/01/04 02:52:34;;;;;;;6.95;6.28;;;8.80;99.90;;;;;;4160493;28;20080;-55
2022/01/04 02:54:54;;;;;;;6.80;6.07;;;8.80;99.90;;;;;;4160443;28;20051;-54
2022/01/04 02:57:15;;;;;;;7.05;6.35;;;8.80;99.90;;;;;;4154977;28;20072;-55
2022/01/04 02:59:35;;;;;;;7.78;6.95;;;8.80;99.90;;;;;;4160760;28;20127;-54
2022/01/04 03:01:56;;;;;;;11.95;7.05;;;8.70;99.90;;;;;;4159260;28;20107;-55
2022/01/04 03:04:17;;;;;;;7.32;6.82;;;8.60;99.90;;;;;;4160471;28;20489;-54
2022/01/04 03:06:38;;;;;;;11.38;6.00;;;8.70;99.90;;;;;;4158277;28;20571;-54
2022/01/04 03:08:58;;;;;;;15.27;5.95;;;8.70;99.90;;;;;;4158613;28;20130;-54
2022/01/04 03:11:18;;;;;;;6.20;5.65;;;8.90;99.90;;;;;;4159667;28;20111;-54
2022/01/04 03:13:39;;;;;;;8.15;6.32;;;8.90;99.90;;;;;;4159661;28;20072;-54
2022/01/04 03:16:00;;;;;;;8.88;7.47;;;8.90;99.90;;;;;;4162136;28;20409;-54
2022/01/04 03:18:20;;;;;;;8.25;6.32;;;8.90;99.90;;;;;;4159018;28;20111;-53
2022/01/04 03:20:41;;;;;;;7.38;6.90;;;8.90;99.90;;;;;;4150183;28;20051;-54
2022/01/04 03:23:02;;;;;;;7.38;6.85;;;8.90;99.90;;;;;;4158957;28;20099;-55
2022/01/04 03:25:23;;;;;;;7.90;6.97;;;8.80;99.90;;;;;;4146705;28;20051;-55
2022/01/04 03:27:44;;;;;;;17.90;7.68;;;9.00;99.90;;;;;;4160306;28;20052;-53
2022/01/04 03:30:06;;;;;;;7.20;6.65;;;9.00;99.90;;;;;;4152653;28;20095;-55
2022/01/04 03:32:26;;;;;;;8.23;7.05;;;8.90;99.90;;;;;;4160777;28;20048;-55
2022/01/04 03:34:47;;;;;;;6.95;6.15;;;8.90;99.90;;;;;;4158233;28;20500;-55
2022/01/04 03:37:07;;;;;;;6.78;6.28;;;9.00;99.90;;;;;;4161884;28;20115;-54
2022/01/04 03:39:28;;;;;;;8.65;5.10;;;9.00;99.90;;;;;;4161990;28;20055;-54
2022/01/04 03:41:50;;;;;;;8.55;5.70;;;9.10;99.90;;;;;;4150565;28;20060;-54
2022/01/04 03:44:18;;;;;;;7.47;6.90;;;9.20;99.90;;;;;;4161210;28;20099;-54
2022/01/04 03:46:39;;;;;;;8.43;6.25;;;9.20;99.90;;;;;;4161142;28;20524;-54
2022/01/04 03:48:59;;;;;;;6.75;6.10;;;9.10;99.90;;;;;;4147523;28;20509;-54
2022/01/04 03:51:20;;;;;;;7.25;5.95;;;9.10;99.90;;;;;;4160030;28;20414;-55
2022/01/04 03:53:41;;;;;;;9.13;6.50;;;9.00;99.90;;;;;;4160079;28;20100;-53
2022/01/04 03:56:02;;;;;;;7.38;5.88;;;9.10;99.90;;;;;;4160114;28;20060;-54
2022/01/04 03:58:23;;;;;;;8.73;5.47;;;9.20;99.90;;;;;;4159201;28;20162;-54
2022/01/04 04:00:43;;;;;;;7.90;6.45;;;9.20;99.90;;;;;;4147538;28;20104;-55
2022/01/04 04:03:04;;;;;;;17.45;7.00;;;9.10;99.90;;;;;;4158104;28;20409;-53
2022/01/04 04:05:25;;;;;;;7.15;6.45;;;9.10;99.90;;;;;;4150965;28;20048;-55
2022/01/04 04:07:45;;;;;;;5.97;5.55;;;9.10;99.90;;;;;;4160305;28;20049;-54
2022/01/04 04:10:06;;;;;;;8.63;6.80;;;9.20;99.90;;;;;;4150920;28;20080;-53
2022/01/04 04:12:27;;;;;;;12.43;6.38;;;9.10;99.90;;;;;;4160473;28;20137;-54
2022/01/04 04:14:48;;;;;;;11.80;6.00;;;9.20;99.90;;;;;;4158612;28;20060;-54
2022/01/04 04:17:12;;;;;;;7.57;6.93;;;9.20;99.90;;;;;;4164521;28;20575;-55
2022/01/04 04:19:32;;;;;;;7.65;6.55;;;9.20;99.90;;;;;;4162913;28;20409;-54
2022/01/04 04:21:53;;;;;;;7.50;5.97;;;9.20;99.90;;;;;;4162923;28;20064;-54
2022/01/04 04:24:14;;;;;;;8.48;6.80;;;9.20;99.90;;;;;;4164178;28;20107;-54
2022/01/04 04:26:34;;;;;;;6.70;6.03;;;9.20;99.90;;;;;;4161183;28;20052;-55
2022/01/04 04:28:54;;;;;;;10.60;6.05;;;9.20;99.90;;;;;;4152500;28;20080;-55
2022/01/04 04:31:15;;;;;;;7.93;5.30;;;9.20;99.90;;;;;;4162381;28;20440;-55
2022/01/04 04:33:35;;;;;;;6.13;5.68;;;9.30;99.90;;;;;;4148324;28;20044;-53
2022/01/04 04:35:56;;;;;;;7.10;5.95;;;9.20;99.90;;;;;;4163537;28;20060;-54
2022/01/04 04:38:18;;;;;;;7.53;6.60;;;9.20;99.90;;;;;;4161268;28;20064;-54
2022/01/04 04:40:39;;;;;;;6.95;6.32;;;9.20;99.90;;;;;;4163752;28;20406;-55
2022/01/04 04:42:59;;;;;;;8.40;6.15;;;9.30;99.90;;;;;;4160719;28;20111;-54
2022/01/04 04:45:20;;;;;;;9.02;6.50;;;9.20;99.90;;;;;;4162969;28;20456;-54
2022/01/04 04:47:41;;;;;;;9.02;5.40;;;9.30;99.90;;;;;;4161911;28;20244;-54
2022/01/04 04:50:03;;;;;;;15.68;5.63;;;9.30;99.90;;;;;;4162700;28;20051;-54
2022/01/04 04:52:24;;;;;;;10.00;5.50;;;9.30;99.90;;;;;;4162805;28;20053;-54
2022/01/04 04:54:44;;;;;;;8.52;5.10;;;9.40;99.90;;;;;;4158403;28;20052;-55
2022/01/04 04:57:05;;;;;;;8.10;4.75;;;9.40;99.90;;;;;;4164440;28;20135;-54
2022/01/04 04:59:26;;;;;;;5.63;5.30;;;9.30;99.90;;;;;;4162096;28;20120;-53
2022/01/04 05:01:47;;;;;;;8.25;5.75;;;9.40;99.90;;;;;;4147499;28;20136;-54
2022/01/04 05:04:08;;;;;;;9.55;5.50;;;9.40;99.90;;;;;;4164044;28;20051;-55
2022/01/04 05:06:29;;;;;;;6.38;5.43;;;9.40;99.90;;;;;;4160642;28;20064;-53
2022/01/04 05:08:49;;;;;;;5.25;4.85;;;9.40;99.90;;;;;;4163909;28;20103;-54
2022/01/04 05:11:10;;;;;;;9.07;5.82;;;9.40;99.90;;;;;;4161505;28;20138;-55
2022/01/04 05:13:31;;;;;;;4.88;4.65;;;9.40;99.90;;;;;;4148450;28;20130;-55
2022/01/04 05:15:52;;;;;;;6.93;6.20;;;9.50;99.90;;;;;;4160316;28;20064;-55
2022/01/04 05:18:13;;;;;;;6.18;5.70;;;9.40;99.90;;;;;;4150707;28;20103;-55
2022/01/04 05:20:33;;;;;;;5.18;4.72;;;9.40;99.90;;;;;;4163208;28;20051;-55
2022/01/04 05:22:54;;;;;;;6.32;5.43;;;9.50;99.90;;;;;;4160418;28;20064;-54
2022/01/04 05:25:15;;;;;;;5.88;4.97;;;9.50;99.90;;;;;;4163721;28;20129;-55
2022/01/04 05:27:36;;;;;;;5.15;4.85;;;9.50;99.90;;;;;;4160411;28;20661;-53
2022/01/04 05:29:56;;;;;;;5.38;4.75;;;9.50;99.90;;;;;;4147353;28;20049;-55
2022/01/04 05:32:17;;;;;;;4.82;4.20;;;9.50;99.90;;;;;;4162850;28;20080;-55
2022/01/04 05:34:37;;;;;;;5.63;5.15;;;9.50;99.90;;;;;;4160751;28;20139;-55
2022/01/04 05:36:58;;;;;;;7.32;4.90;;;9.50;99.90;;;;;;4163059;28;20068;-55
2022/01/04 05:39:19;;;;;;;4.65;4.35;;;9.50;99.90;;;;;;4154516;28;20881;-55
2022/01/04 05:41:39;;;;;;;5.80;5.28;;;9.50;99.90;;;;;;4162688;28;20060;-54
2022/01/04 05:44:00;;;;;;;4.68;4.28;;;9.50;99.90;;;;;;4159487;28;20053;-54
2022/01/04 05:46:21;;;;;;;10.68;5.25;;;9.50;99.90;;;;;;4147628;28;20045;-55
2022/01/04 05:48:42;;;;;;;5.75;5.35;;;9.50;99.90;;;;;;4162135;28;20047;-54
2022/01/04 05:51:03;;;;;;;5.70;4.30;;;9.50;99.90;;;;;;4154541;28;20067;-55
2022/01/04 05:53:25;;;;;;;8.93;5.03;;;9.40;99.90;;;;;;4163023;28;20053;-54
2022/01/04 05:55:46;;;;;;;10.73;5.22;;;9.40;99.90;;;;;;4159984;28;20295;-54
2022/01/04 05:58:06;;;;;;;4.85;4.55;;;9.40;99.90;;;;;;4162100;28;20052;-54
2022/01/04 06:00:27;;;;;;;5.13;4.82;;;9.40;99.90;;;;;;4160294;28;20524;-54
2022/01/04 06:02:54;;;;;;;10.40;5.68;;;9.40;99.90;;;;;;4160565;28;20603;-54
2022/01/04 06:05:15;;;;;;;10.90;5.55;;;9.30;99.90;;;;;;4162325;28;20486;-55
2022/01/04 06:07:36;;;;;;;6.15;5.10;;;9.40;99.90;;;;;;4159424;28;20044;-54
2022/01/04 06:09:57;;;;;;;4.53;4.13;;;9.40;99.90;;;;;;4161855;28;20084;-55
2022/01/04 06:14:52;;;;;;;6.70;6.10;;;9.40;99.90;;;;;;4147853;28;20095;-54
2022/01/04 06:17:13;;;;;;;6.57;6.05;;;9.40;99.90;;;;;;4162237;28;20060;-54
2022/01/04 06:19:34;;;;;;;13.38;6.00;;;9.40;99.90;;;;;;4159160;28;20053;-54
2022/01/04 06:21:55;;;;;;;6.13;5.03;;;9.30;99.90;;;;;;4161587;28;20552;-55
2022/01/04 06:24:16;;;;;;;6.72;6.10;;;9.40;99.90;;;;;;4158928;28;20108;-58
2022/01/04 06:26:37;;;;;;;7.82;5.07;;;9.40;99.90;;;;;;4162034;28;20099;-55
2022/01/04 06:28:57;;;;;;;5.95;5.43;;;9.50;99.90;;;;;;4162530;28;20048;-55
2022/01/04 06:31:18;;;;;;;5.70;5.40;;;9.50;99.90;;;;;;4159725;28;20563;-55
2022/01/04 06:33:39;;;;;;;11.80;6.63;;;9.50;99.90;;;;;;4162467;28;20049;-54
2022/01/04 06:35:59;;;;;;;5.63;5.07;;;9.50;99.90;;;;;;4159790;28;20111;-55
2022/01/04 06:38:20;;;;;;;4.53;4.22;;;9.60;99.90;;;;;;4161135;28;20068;-55
2022/01/04 06:40:41;;;;;;;5.63;4.88;;;9.60;99.90;;;;;;4159968;28;20405;-55
2022/01/04 06:43:01;;;;;;;5.75;5.38;;;9.60;99.90;;;;;;4147185;28;20057;-55
2022/01/04 06:45:22;;;;;;;9.30;5.03;;;9.60;99.90;;;;;;4162409;28;20083;-55
2022/01/04 06:47:43;;;;;;;7.07;5.47;;;9.50;99.90;;;;;;4159960;28;20040;-56
2022/01/04 06:50:05;;;;;;;5.63;5.10;;;9.60;99.90;;;;;;4161662;28;20052;-55
2022/01/04 06:52:25;;;;;;;9.97;6.07;;;9.50;99.90;;;;;;4156924;28;20056;-56
2022/01/04 06:54:46;;;;;;;5.68;5.22;;;9.50;99.90;;;;;;4154090;28;20283;-55
2022/01/04 06:57:11;;;;;;;8.30;5.50;;;9.60;99.90;;;;;;4161896;28;20135;-55
2022/01/04 06:59:31;;;;;;;5.57;5.18;;;9.60;99.90;;;;;;4159387;28;20056;-54
2022/01/04 07:01:53;;;;;;;6.10;5.60;;;9.50;99.90;;;;;;4160792;28;20099;-55
2022/01/04 07:04:14;;;;;;;7.00;5.32;;;9.60;99.90;;;;;;4157688;28;20072;-55
2022/01/04 07:06:35;;;;;;;8.95;5.65;;;9.50;99.90;;;;;;4160675;28;20052;-55
2022/01/04 07:08:56;;;;;;;12.57;6.93;;;9.50;99.90;;;;;;4159094;28;20571;-55
2022/01/04 07:11:17;;;;;;;5.38;5.10;;;9.50;99.90;;;;;;4158175;28;20076;-55
2022/01/04 07:13:38;;;;;;;6.40;5.85;;;9.40;99.90;;;;;;4159636;28;20055;-56
2022/01/04 07:15:59;;;;;;;9.65;6.82;;;9.40;99.90;;;;;;4158370;28;20136;-55
2022/01/04 07:18:20;;;;;;;8.88;5.93;;;9.50;99.90;;;;;;4165380;28;20148;-55
2022/01/04 07:20:40;;;;;;;5.85;5.55;;;9.50;99.90;;;;;;4157553;28;20405;-55
2022/01/04 07:23:01;;;;;;;7.00;5.75;;;9.50;99.90;;;;;;4149295;28;20111;-55
2022/01/04 07:25:22;;;;;;;6.78;6.03;;;9.50;99.90;;;;;;4160221;28;20120;-55
2022/01/04 07:27:43;;;;;;;5.43;5.07;;;9.40;99.90;;;;;;4149309;28;20124;-54
2022/01/04 07:30:04;;;;;;;8.82;5.78;;;9.40;99.90;;;;;;4162285;28;20452;-55
2022/01/04 07:32:25;;;;;;;5.63;5.20;;;9.50;99.90;;;;;;4161710;28;20087;-55
2022/01/04 07:34:45;;;;;;;7.80;4.90;;;9.50;99.90;;;;;;4160924;28;20056;-55
2022/01/04 07:37:07;;;;;;;6.35;5.40;;;9.50;99.90;;;;;;4159050;28;20068;-54
2022/01/04 07:39:27;;;;;;;7.55;5.60;;;9.50;99.90;;;;;;4160203;28;20476;-55
2022/01/04 07:41:48;;;;;;;5.05;4.85;;;9.60;99.90;;;;;;4161564;28;20076;-56
2022/01/04 07:44:09;;;;;;;6.43;5.47;;;9.60;99.90;;;;;;4157460;28;20515;-55
2022/01/04 07:46:29;;;;;;;5.47;5.10;;;9.60;99.90;;;;;;4160384;28;20092;-55
2022/01/04 07:48:51;;;;;;;5.63;5.40;;;9.60;99.90;;;;;;4159560;28;20044;-54
2022/01/04 07:51:11;;;;;;;6.38;5.72;;;9.60;99.90;;;;;;4148662;28;20053;-55
2022/01/04 07:53:32;;;;;;;5.60;5.15;;;9.60;99.90;;;;;;4161863;28;20084;-56
2022/01/04 07:55:53;;;;;;;7.85;5.70;;;9.50;99.90;;;;;;4157781;28;20096;-55
2022/01/04 07:58:13;;;;;;;5.47;5.15;;;9.50;99.90;;;;;;4163691;28;20107;-55
2022/01/04 08:00:34;;;;;;;4.95;4.70;;;9.60;99.90;;;;;;4161698;28;20061;-55
2022/01/04 08:02:55;;;;;;;5.07;4.88;;;9.60;99.90;;;;;;4164522;28;20413;-55
2022/01/04 08:05:16;;;;;;;5.82;5.30;;;9.60;99.90;;;;;;4162411;28;20138;-54
2022/01/04 08:07:37;;;;;;;5.90;5.70;;;9.60;99.90;;;;;;4153220;28;20748;-54
2022/01/04 08:09:57;;;;;;;7.50;6.90;;;9.60;99.90;;;;;;4164992;28;20136;-55
2022/01/04 08:12:17;;;;;;;6.10;5.55;;;9.60;99.90;;;;;;4153372;28;20048;-54
2022/01/04 08:14:38;;;;;;;6.13;5.80;;;9.60;99.90;;;;;;4164067;28;20048;-55
2022/01/04 08:16:58;;;;;;;6.75;4.07;;;9.60;99.90;;;;;;4162055;28;20107;-54
2022/01/04 08:19:19;;;;;;;5.43;4.93;;;9.60;99.90;;;;;;4163244;28;20084;-55
2022/01/04 08:21:39;;;;;;;5.65;5.22;;;9.60;99.90;;;;;;4161870;28;20052;-55
2022/01/04 08:24:00;;;;;;;10.45;5.82;;;9.60;99.90;;;;;;4163002;28;20057;-55
2022/01/04 08:26:20;;;;;;;5.35;5.10;;;9.50;99.90;;;;;;4164368;28;20057;-54
2022/01/04 08:28:41;;;;;;;5.38;4.82;;;9.50;99.90;;;;;;4162627;28;20083;-54
2022/01/04 08:31:02;;;;;;;6.35;5.70;;;9.50;99.90;;;;;;4162815;28;20167;-55
2022/01/04 08:33:42;;;;;;;9.15;6.00;;;9.50;99.90;;;;;;4160821;28;20056;-56
2022/01/04 08:36:04;;;;;;;5.60;5.40;;;9.40;99.90;;;;;;4149043;28;20051;-56
2022/01/04 08:38:25;;;;;;;4.95;4.85;;;9.40;99.90;;;;;;4170577;28;20123;-54
2022/01/04 08:40:46;;;;;;;6.82;6.55;;;9.40;99.90;;;;;;4164801;28;20056;-54
2022/01/04 08:43:07;;;;;;;6.05;5.75;;;9.40;99.90;;;;;;4163553;28;20406;-55
2022/01/04 08:45:28;;;;;;;5.63;5.25;;;9.40;99.90;;;;;;4160303;28;20103;-55
2022/01/04 08:47:51;;;;;;;6.72;6.25;;;9.40;99.90;;;;;;4148437;28;20064;-55
2022/01/04 08:50:14;;;;;;;9.52;6.70;;;9.40;99.90;;;;;;4163713;28;20134;-54
2022/01/04 08:52:35;;;;;;;7.30;6.68;;;9.40;99.90;;;;;;4162285;28;20111;-55
2022/01/04 08:54:56;;;;;;;7.47;5.90;;;9.40;99.90;;;;;;4164143;28;20111;-55
2022/01/04 08:57:16;;;;;;;6.00;5.75;;;9.40;99.90;;;;;;4162687;28;20052;-55
2022/01/04 08:59:37;;;;;;;7.22;6.70;;;9.40;99.90;;;;;;4159853;28;20052;-54
2022/01/04 09:01:58;;;;;;;11.38;7.50;;;9.40;99.90;;;;;;4160304;28;20567;-55
2022/01/04 09:04:21;;;;;;;9.80;8.80;;;9.40;99.90;;;;;;4161977;28;20152;-55
2022/01/04 09:06:41;;;;;;;6.82;6.43;;;9.40;99.90;;;;;;4164204;28;20108;-55
2022/01/04 09:09:04;;;;;;;8.98;7.03;;;9.50;99.90;;;;;;4155252;28;20409;-55
2022/01/04 09:11:24;;;;;;;13.55;9.18;;;9.50;99.90;;;;;;4154483;28;20064;-55
2022/01/04 09:13:45;;;;;;;8.20;5.82;;;9.50;99.90;;;;;;4162665;28;20206;-55
2022/01/04 09:21:28;;;;;;;6.25;5.68;;;9.50;99.90;;;;;;4161224;28;20065;-55
2022/01/04 09:23:49;;;;;;;10.10;6.05;;;9.50;99.90;;;;;;4162928;28;20099;-55
2022/01/04 09:26:10;;;;;;;7.10;5.38;;;9.50;99.90;;;;;;4160932;28;20401;-56
2022/01/04 09:28:31;;;;;;;6.00;5.50;;;9.50;99.90;;;;;;4160718;28;20044;-55
2022/01/04 09:30:52;;;;;;;6.72;4.93;;;9.50;99.90;;;;;;4163539;28;20080;-55
2022/01/04 09:33:13;;;;;;;11.70;4.50;;;9.50;99.90;;;;;;4162502;28;20095;-55
2022/01/04 09:35:35;;;;;;;6.47;5.90;;;9.50;99.90;;;;;;4162865;28;20112;-55
2022/01/04 09:37:56;;;;;;;8.82;7.70;;;9.50;99.90;;;;;;4161023;28;20060;-55
2022/01/04 09:40:16;;;;;;;6.93;6.40;;;9.50;99.90;;;;;;4152327;28;20056;-55
2022/01/04 09:42:38;;;;;;;6.22;5.60;;;9.60;99.90;;;;;;4163602;28;20444;-55
2022/01/04 09:44:59;;;;;;;7.40;5.78;;;9.60;99.90;;;;;;4151873;28;20064;-56
2022/01/04 09:47:20;;;;;;;5.60;5.10;;;9.60;99.90;;;;;;4151136;28;20049;-55
2022/01/04 09:49:41;;;;;;;10.85;6.15;;;9.50;99.90;;;;;;4156039;28;20048;-55
2022/01/04 09:52:05;;;;;;;6.35;5.72;;;9.50;99.90;;;;;;4162280;28;20107;-55
2022/01/04 09:54:26;;;;;;;5.22;4.40;;;9.50;99.90;;;;;;4160941;28;20051;-55
2022/01/04 09:56:49;;;;;;;12.00;5.82;;;9.50;99.90;;;;;;4160472;28;20051;-56
2022/01/04 09:59:09;;;;;;;;;;;9.60;99.90;;;;;;4161829;28;20103;-55
2022/01/04 10:01:38;;;;;;;6.03;5.53;;;9.60;99.90;;;;;;4159512;28;20013;-54
2022/01/04 10:04:15;;;;;;;8.65;5.63;;;9.50;99.90;;;;;;4146738;28;20072;-56
2022/01/04 10:06:37;;;;;;;10.57;5.40;;;9.50;99.90;;;;;;4160358;28;20547;-55
2022/01/04 10:09:08;;;;;;;5.33;5.13;;;9.50;99.90;;;;;;4150573;28;20048;-55
2022/01/04 10:11:33;;;;;;;6.07;5.60;;;9.50;99.90;;;;;;4160691;28;20358;-55
2022/01/04 10:13:54;;;;;;;10.57;5.20;;;9.50;99.90;;;;;;4155976;28;20060;-56
2022/01/04 10:16:16;;;;;;;5.43;4.90;;;9.50;99.90;;;;;;4161921;28;20056;-56
2022/01/04 10:18:23;;;;;;;6.10;5.57;;;9.50;99.90;;;;;;4157999;28;20042;-56
2022/01/04 10:20:25;;;;;;;9.07;5.50;;;9.50;99.90;;;;;;4162503;28;20069;-55
2022/01/04 10:22:31;;;;;;;5.78;5.05;;;9.50;99.90;;;;;;4160595;28;20461;-56
2022/01/04 10:24:33;;;;;;;6.07;5.57;;;9.50;99.90;;;;;;4148647;28;20088;-54
2022/01/04 10:26:37;;;;;;;6.85;5.05;;;9.50;99.90;;;;;;4160917;28;20099;-55
2022/01/04 10:28:42;;;;;;;11.75;6.40;;;9.60;99.90;;;;;;4162429;28;20094;-55
2022/01/04 10:30:44;;;;;;;6.95;5.82;;;9.60;99.90;;;;;;4160227;28;20037;-55
2022/01/04 10:32:52;;;;;;;5.68;5.25;;;9.60;99.90;;;;;;4160832;28;20413;-55
2022/01/04 10:34:56;;;;;;;6.72;6.05;;;9.60;99.90;;;;;;4163400;28;20090;-55
2022/01/04 10:36:58;;;;;;;7.13;6.45;;;9.60;99.90;;;;;;4174569;28;20147;-55
2022/01/04 10:39:08;;;;;;;6.82;5.35;;;9.60;99.90;;;;;;4163971;28;20044;-56
2022/01/04 10:41:17;;;;;;;9.90;6.38;;;9.70;99.90;;;;;;4164246;28;20069;-55
2022/01/04 10:43:21;;;;;;;15.60;6.50;;;9.70;99.90;;;;;;4162713;28;20049;-54
2022/01/04 10:45:30;;;;;;;6.85;6.22;;;9.70;99.90;;;;;;4148745;28;20045;-55
2022/01/04 10:47:32;;;;;;;8.07;5.53;;;9.70;99.90;;;;;;4161040;28;20041;-56
2022/01/04 10:49:41;;;;;;;7.18;4.75;;;9.80;99.90;;;;;;4160521;28;20041;-55
2022/01/04 10:51:44;;;;;;;9.88;5.60;;;9.80;99.90;;;;;;4161462;28;20441;-55
2022/01/04 10:53:52;;;;;;;8.13;6.43;;;9.80;99.90;;;;;;4160148;28;20133;-56
2022/01/04 10:55:57;;;;;;;8.38;5.40;;;9.80;99.90;;;;;;4159899;28;20060;-55
2022/01/04 10:58:01;;;;;;;7.88;6.20;;;9.80;99.90;;;;;;4159135;28;20065;-55
2022/01/04 11:00:20;;;;;;;6.18;5.60;;;9.90;99.90;;;;;;4160486;28;20044;-55
2022/01/04 11:02:34;;;;;;;7.60;5.78;;;9.90;99.90;;;;;;4157281;28;20065;-55
2022/01/04 11:04:39;;;;;;;6.10;5.38;;;10.00;99.90;;;;;;4161986;28;20563;-56
2022/01/04 11:06:42;;;;;;;5.60;4.97;;;10.00;99.90;;;;;;4159116;28;20084;-55
2022/01/04 11:08:45;;;;;;;9.18;6.55;;;10.00;99.90;;;;;;4161831;28;20038;-55
2022/01/04 11:10:49;;;;;;;15.85;5.35;;;10.00;99.90;;;;;;4159980;28;20072;-54
2022/01/04 11:12:52;;;;;;;6.18;5.63;;;10.10;99.90;;;;;;4162035;28;20048;-55
2022/01/04 11:14:54;;;;;;;6.63;5.65;;;10.30;99.90;;;;;;4159356;28;20069;-55
2022/01/04 11:16:56;;;;;;;6.20;5.78;;;10.50;99.90;;;;;;4161482;28;20068;-55
2022/01/04 11:18:59;;;;;;;10.07;7.05;;;10.60;99.90;;;;;;4159484;28;20394;-55
2022/01/04 11:21:04;;;;;;;4.55;4.15;;;10.70;99.90;;;;;;4161468;28;20070;-55
2022/01/04 11:23:06;;;;;;;9.45;4.28;;;10.90;99.90;;;;;;4159215;28;20037;-55
2022/01/04 11:25:09;;;;;;;;;;;11.00;99.90;;;;;;4160623;28;20103;-56
2022/01/04 11:27:12;;;;;;;6.80;5.95;;;11.10;99.90;;;;;;4160115;28;19921;-55
2022/01/04 11:29:16;;;;;;;5.93;5.13;;;11.10;99.90;;;;;;4167658;28;20405;-56
2022/01/04 11:31:30;;;;;;;5.35;4.85;;;11.00;99.90;;;;;;4160041;28;20124;-55
2022/01/04 11:34:10;;;;;;;5.05;3.58;;;11.00;99.90;;;;;;4159308;28;20034;-55
2022/01/04 11:36:14;;;;;;;7.32;4.15;;;10.90;99.90;;;;;;4161174;28;20048;-55
2022/01/04 11:38:34;;;;;;;6.57;5.25;;;11.00;99.90;;;;;;4158757;28;20083;-56
2022/01/04 11:40:41;;;;;;;5.68;3.30;;;11.00;99.90;;;;;;4161299;28;20080;-56
2022/01/04 11:42:43;;;;;;;5.65;3.67;;;11.00;99.90;;;;;;4156829;28;20449;-55
2022/01/04 11:44:49;;;;;;;5.97;5.03;;;11.00;99.90;;;;;;4162616;28;20048;-56
2022/01/04 11:47:03;;;;;;;7.20;4.03;;;11.00;99.90;;;;;;4159446;28;20045;-55
2022/01/04 11:49:12;;;;;;;7.97;4.05;;;11.10;99.90;;;;;;4161194;28;20124;-55
2022/01/04 11:51:29;;;;;;;3.60;3.33;;;11.10;99.90;;;;;;4159145;28;20083;-55
2022/01/04 11:53:33;;;;;;;7.82;4.82;;;11.00;99.90;;;;;;4160641;28;20556;-54
2022/01/04 11:55:48;;;;;;;4.53;2.72;;;11.00;99.90;;;;;;4159631;28;20037;-55
2022/01/04 11:57:52;;;;;;;3.55;3.25;;;11.00;99.90;;;;;;4160343;28;20096;-54
2022/01/04 11:59:59;;;;;;;3.22;3.03;;;10.90;99.90;;;;;;4160024;28;20073;-56
2022/01/04 12:02:35;;;;;;;6.05;3.05;;;10.90;99.90;;;;;;4149065;28;20404;-55
2022/01/04 12:04:49;;;;;;;4.60;3.90;;;10.80;99.90;;;;;;4161299;28;20053;-55
2022/01/04 12:06:53;;;;;;;4.47;3.75;;;10.80;99.90;;;;;;4158781;28;20060;-55
2022/01/04 12:08:55;;;;;;;4.45;4.15;;;10.80;99.90;;;;;;4158788;28;20049;-55
2022/01/04 12:10:57;;;;;;;5.75;4.80;;;10.80;99.90;;;;;;4157705;28;20053;-55
2022/01/04 12:13:00;;;;;;;5.30;4.32;;;10.80;99.90;;;;;;4157681;28;20092;-55
2022/01/04 12:15:34;;;;;;;4.47;3.88;;;10.90;99.90;;;;;;4156533;28;20056;-55
2022/01/04 12:17:42;;;;;;;11.95;6.82;;;10.80;99.90;;;;;;4147319;28;20060;-54
2022/01/04 12:19:47;;;;;;;7.80;4.50;;;10.80;99.90;;;;;;4156305;28;20084;-55